sensor_id;sensor_type;location;lat;lon;timestamp;pressure;altitude;pressure_sealevel;temperature;humidity
45621;BME280;31345;51.522;10.702;2023-02-27T00:01:35;100067.78;;;-2.85;100.00
45621;BME280;31345;51.522;10.702;2023-02-27T00:04:07;100074.56;;;-2.93;100.00
45621;BME280;31345;51.522;10.702;2023-02-27T00:06:35;100079.66;;;-2.96;100.00
45621;BME280;31345;51.522;10.702;2023-02-27T00:09:07;100076.25;;;-2.98;100.00
45621;BME280;31345;51.522;10.702;2023-02-27T00:11:40;100076.25;;;-2.98;100.00
45621;BME280;31345;51.522;10.702;2023-02-27T00:14:13;100068.53;;;-3.06;100.00
45621;BME280;31345;51.522;10.702;2023-02-27T00:16:47;100079.59;;;-3.09;100.00
45621;BME280;31345;51.522;10.702;2023-02-27T00:19:15;100082.13;;;-3.13;100.00
45621;BME280;31345;51.522;10.702;2023-02-27T00:21:47;100075.28;;;-3.16;100.00
45621;BME280;31345;51.522;10.702;2023-02-27T00:24:20;100082.97;;;-3.14;100.00
45621;BME280;31345;51.522;10.702;2023-02-27T00:26:52;100077.91;;;-3.10;100.00
45621;BME280;31345;51.522;10.702;2023-02-27T00:29:20;100078.69;;;-3.20;100.00
45621;BME280;31345;51.522;10.702;2023-02-27T00:31:52;100082.94;;;-3.18;100.00
45621;BME280;31345;51.522;10.702;2023-02-27T00:34:20;100074.41;;;-3.17;100.00
45621;BME280;31345;51.522;10.702;2023-02-27T00:36:52;100085.47;;;-3.24;100.00
45621;BME280;31345;51.522;10.702;2023-02-27T00:39:25;100088.03;;;-3.24;100.00
45621;BME280;31345;51.522;10.702;2023-02-27T00:41:53;100088.84;;;-3.31;100.00
45621;BME280;31345;51.522;10.702;2023-02-27T00:44:25;100087.03;;;-3.43;100.00
45621;BME280;31345;51.522;10.702;2023-02-27T00:46:54;100087.81;;;-3.55;100.00
45621;BME280;31345;51.522;10.702;2023-02-27T00:49:27;100079.34;;;-3.45;100.00
45621;BME280;31345;51.522;10.702;2023-02-27T00:51:59;100084.41;;;-3.52;100.00
45621;BME280;31345;51.522;10.702;2023-02-27T00:54:27;100087.03;;;-3.43;100.00
45621;BME280;31345;51.522;10.702;2023-02-27T00:56:54;100093.88;;;-3.39;100.00
45621;BME280;31345;51.522;10.702;2023-02-27T00:59:27;100092.03;;;-3.59;100.00
45621;BME280;31345;51.522;10.702;2023-02-27T01:02:01;100092.91;;;-3.55;100.00
45621;BME280;31345;51.522;10.702;2023-02-27T01:04:28;100089.25;;;-3.85;100.00
45621;BME280;31345;51.522;10.702;2023-02-27T01:07:01;100092.75;;;-3.74;100.00
45621;BME280;31345;51.522;10.702;2023-02-27T01:09:29;100092.78;;;-3.71;100.00
45621;BME280;31345;51.522;10.702;2023-02-27T01:12:01;100090.19;;;-3.74;100.00
45621;BME280;31345;51.522;10.702;2023-02-27T01:14:29;100094.41;;;-3.81;100.00
45621;BME280;31345;51.522;10.702;2023-02-27T01:17:03;100091.69;;;-3.96;100.00
45621;BME280;31345;51.522;10.702;2023-02-27T01:19:32;100093.56;;;-3.79;100.00
45621;BME280;31345;51.522;10.702;2023-02-27T01:22:05;100091.91;;;-3.74;100.00
45621;BME280;31345;51.522;10.702;2023-02-27T01:24:33;100092.63;;;-3.88;100.00
45621;BME280;31345;51.522;10.702;2023-02-27T01:27:00;100082.44;;;-3.85;100.00
45621;BME280;31345;51.522;10.702;2023-02-27T01:29:28;100090.72;;;-4.08;100.00
45621;BME280;31345;51.522;10.702;2023-02-27T01:31:56;100080.56;;;-4.04;100.00
45621;BME280;31345;51.522;10.702;2023-02-27T01:34:30;100079.81;;;-3.91;100.00
45621;BME280;31345;51.522;10.702;2023-02-27T01:37:03;100079.75;;;-3.99;100.00
45621;BME280;31345;51.522;10.702;2023-02-27T01:39:36;100083.94;;;-4.07;100.00
45621;BME280;31345;51.522;10.702;2023-02-27T01:42:18;100083.03;;;-4.14;100.00
45621;BME280;31345;51.522;10.702;2023-02-27T01:45:17;100084.66;;;-4.17;100.00
45621;BME280;31345;51.522;10.702;2023-02-27T01:47:51;100080.47;;;-4.12;100.00
45621;BME280;31345;51.522;10.702;2023-02-27T01:50:21;100088.22;;;-4.03;100.00
45621;BME280;31345;51.522;10.702;2023-02-27T01:52:56;100085.63;;;-4.08;100.00
45621;BME280;31345;51.522;10.702;2023-02-27T01:55:26;100092.34;;;-4.16;100.00
45621;BME280;31345;51.522;10.702;2023-02-27T01:57:55;100095.78;;;-4.14;100.00
45621;BME280;31345;51.522;10.702;2023-02-27T02:00:28;100093.22;;;-4.15;100.00
45621;BME280;31345;51.522;10.702;2023-02-27T02:03:00;100092.34;;;-4.16;100.00
45621;BME280;31345;51.522;10.702;2023-02-27T02:05:32;100084.66;;;-4.21;100.00
45621;BME280;31345;51.522;10.702;2023-02-27T02:08:05;100086.47;;;-4.09;100.00
45621;BME280;31345;51.522;10.702;2023-02-27T02:10:34;100083.88;;;-4.12;100.00
45621;BME280;31345;51.522;10.702;2023-02-27T02:13:08;100091.63;;;-4.01;100.00
45621;BME280;31345;51.522;10.702;2023-02-27T02:15:41;100088.97;;;-4.12;100.00
45621;BME280;31345;51.522;10.702;2023-02-27T02:18:23;100094.97;;;-4.11;100.00
45621;BME280;31345;51.522;10.702;2023-02-27T02:24:40;100092.16;;;-4.33;100.00
45621;BME280;31345;51.522;10.702;2023-02-27T02:27:17;100089.72;;;-4.25;100.00
45621;BME280;31345;51.522;10.702;2023-02-27T02:30:23;100089.66;;;-4.30;100.00
45621;BME280;31345;51.522;10.702;2023-02-27T02:33:21;100081.00;;;-4.41;100.00
45621;BME280;31345;51.522;10.702;2023-02-27T02:39:23;100078.56;;;-4.32;100.00
45621;BME280;31345;51.522;10.702;2023-02-27T02:42:02;100073.63;;;-4.18;100.00
45621;BME280;31345;51.522;10.702;2023-02-27T02:44:40;100076.97;;;-4.19;100.00
45621;BME280;31345;51.522;10.702;2023-02-27T02:47:22;100071.75;;;-4.32;100.00
45621;BME280;31345;51.522;10.702;2023-02-27T02:49:57;100062.47;;;-4.23;100.00
45621;BME280;31345;51.522;10.702;2023-02-27T02:52:42;100073.47;;;-4.29;100.00
45621;BME280;31345;51.522;10.702;2023-02-27T02:55:21;100068.59;;;-4.07;100.00
45621;BME280;31345;51.522;10.702;2023-02-27T02:58:01;100074.50;;;-4.14;100.00
45621;BME280;31345;51.522;10.702;2023-02-27T03:00:38;100077.78;;;-4.26;100.00
45621;BME280;31345;51.522;10.702;2023-02-27T03:03:11;100071.91;;;-4.16;100.00
45621;BME280;31345;51.522;10.702;2023-02-27T03:05:49;100084.59;;;-4.25;100.00
45621;BME280;31345;51.522;10.702;2023-02-27T03:08:22;100081.13;;;-4.32;100.00
45621;BME280;31345;51.522;10.702;2023-02-27T03:11:00;100085.41;;;-4.29;100.00
45621;BME280;31345;51.522;10.702;2023-02-27T03:13:33;100087.25;;;-4.16;100.00
45621;BME280;31345;51.522;10.702;2023-02-27T03:16:07;100087.06;;;-4.33;100.00
45621;BME280;31345;51.522;10.702;2023-02-27T03:18:48;100092.03;;;-4.44;100.00
45621;BME280;31345;51.522;10.702;2023-02-27T03:21:26;100094.19;;;-4.80;100.00
45621;BME280;31345;51.522;10.702;2023-02-27T03:23:59;100102.22;;;-4.47;100.00
45621;BME280;31345;51.522;10.702;2023-02-27T03:26:40;100107.28;;;-4.53;100.00
45621;BME280;31345;51.522;10.702;2023-02-27T03:29:18;100104.81;;;-4.42;100.00
45621;BME280;31345;51.522;10.702;2023-02-27T03:31:51;100105.50;;;-4.59;100.00
45621;BME280;31345;51.522;10.702;2023-02-27T03:34:26;100111.16;;;-4.82;100.00
45621;BME280;31345;51.522;10.702;2023-02-27T03:37:08;100110.28;;;-4.86;100.00
45621;BME280;31345;51.522;10.702;2023-02-27T03:39:45;100113.13;;;-4.62;100.00
45621;BME280;31345;51.522;10.702;2023-02-27T03:42:27;100119.91;;;-4.64;100.00
45621;BME280;31345;51.522;10.702;2023-02-27T03:45:19;100128.38;;;-4.65;100.00
45621;BME280;31345;51.522;10.702;2023-02-27T03:47:54;100124.31;;;-4.49;100.00
45621;BME280;31345;51.522;10.702;2023-02-27T03:50:23;100120.97;;;-4.45;100.00
45621;BME280;31345;51.522;10.702;2023-02-27T03:52:56;100130.88;;;-4.72;100.00
45621;BME280;31345;51.522;10.702;2023-02-27T03:55:34;100133.53;;;-4.62;100.00
45621;BME280;31345;51.522;10.702;2023-02-27T03:58:10;100142.16;;;-4.51;100.00
45621;BME280;31345;51.522;10.702;2023-02-27T04:00:43;100136.00;;;-4.70;100.00
45621;BME280;31345;51.522;10.702;2023-02-27T04:03:16;100137.72;;;-4.69;100.00
45621;BME280;31345;51.522;10.702;2023-02-27T04:05:44;100137.06;;;-4.51;100.00
45621;BME280;31345;51.522;10.702;2023-02-27T04:08:37;100131.44;;;-4.22;100.00
45621;BME280;31345;51.522;10.702;2023-02-27T04:11:26;100136.59;;;-4.18;100.00
45621;BME280;31345;51.522;10.702;2023-02-27T04:14:22;100138.28;;;-4.17;100.00
45621;BME280;31345;51.522;10.702;2023-02-27T04:17:15;100140.94;;;-4.11;100.00
45621;BME280;31345;51.522;10.702;2023-02-27T04:20:11;100141.84;;;-4.04;100.00
45621;BME280;31345;51.522;10.702;2023-02-27T04:22:46;100136.09;;;-3.85;100.00
45621;BME280;31345;51.522;10.702;2023-02-27T04:28:16;100141.97;;;-3.92;100.00
45621;BME280;31345;51.522;10.702;2023-02-27T04:30:57;100153.19;;;-3.79;100.00
45621;BME280;31345;51.522;10.702;2023-02-27T04:33:30;100156.75;;;-3.66;100.00
45621;BME280;31345;51.522;10.702;2023-02-27T04:36:06;100159.13;;;-3.83;100.00
45621;BME280;31345;51.522;10.702;2023-02-27T04:38:45;100165.16;;;-3.75;100.00
45621;BME280;31345;51.522;10.702;2023-02-27T04:41:20;100158.47;;;-3.59;100.00
45621;BME280;31345;51.522;10.702;2023-02-27T04:43:49;100157.69;;;-3.55;100.00
45621;BME280;31345;51.522;10.702;2023-02-27T04:46:27;100159.28;;;-3.63;100.00
45621;BME280;31345;51.522;10.702;2023-02-27T04:49:04;100158.59;;;-3.49;100.00
45621;BME280;31345;51.522;10.702;2023-02-27T04:51:43;100162.06;;;-3.43;100.00
45621;BME280;31345;51.522;10.702;2023-02-27T04:54:16;100156.97;;;-3.39;100.00
45621;BME280;31345;51.522;10.702;2023-02-27T04:56:52;100156.09;;;-3.40;100.00
45621;BME280;31345;51.522;10.702;2023-02-27T04:59:23;100159.47;;;-3.46;100.00
45621;BME280;31345;51.522;10.702;2023-02-27T05:02:01;100153.63;;;-3.34;100.00
45621;BME280;31345;51.522;10.702;2023-02-27T05:04:39;100155.25;;;-3.39;100.00
45621;BME280;31345;51.522;10.702;2023-02-27T05:07:17;100158.69;;;-3.37;100.00
45621;BME280;31345;51.522;10.702;2023-02-27T05:09:50;100162.09;;;-3.39;100.00
45621;BME280;31345;51.522;10.702;2023-02-27T05:12:27;100161.22;;;-3.38;100.00
45621;BME280;31345;51.522;10.702;2023-02-27T05:15:00;100162.22;;;-3.21;100.00
45621;BME280;31345;51.522;10.702;2023-02-27T05:17:40;100158.81;;;-3.21;100.00
45621;BME280;31345;51.522;10.702;2023-02-27T05:20:14;100152.91;;;-3.11;100.00
45621;BME280;31345;51.522;10.702;2023-02-27T05:22:46;100157.22;;;-3.04;100.00
45621;BME280;31345;51.522;10.702;2023-02-27T05:25:23;100163.06;;;-3.23;100.00
45621;BME280;31345;51.522;10.702;2023-02-27T05:28:01;100159.69;;;-3.22;100.00
45621;BME280;31345;51.522;10.702;2023-02-27T05:30:37;100165.72;;;-3.12;100.00
45621;BME280;31345;51.522;10.702;2023-02-27T05:33:16;100169.16;;;-3.09;100.00
45621;BME280;31345;51.522;10.702;2023-02-27T05:35:53;100165.72;;;-3.09;100.00
45621;BME280;31345;51.522;10.702;2023-02-27T05:38:26;100171.69;;;-3.09;100.00
45621;BME280;31345;51.522;10.702;2023-02-27T05:41:02;100170.94;;;-2.98;100.00
45621;BME280;31345;51.522;10.702;2023-02-27T05:43:39;100173.47;;;-2.97;100.00
45621;BME280;31345;51.522;10.702;2023-02-27T05:46:12;100171.78;;;-2.98;100.00
45621;BME280;31345;51.522;10.702;2023-02-27T05:48:45;100172.69;;;-2.94;100.00
45621;BME280;31345;51.522;10.702;2023-02-27T05:51:16;100166.72;;;-2.92;100.00
45621;BME280;31345;51.522;10.702;2023-02-27T05:53:49;100165.03;;;-2.85;100.00
45621;BME280;31345;51.522;10.702;2023-02-27T05:56:25;100167.53;;;-2.96;100.00
45621;BME280;31345;51.522;10.702;2023-02-27T05:58:58;100168.38;;;-2.98;100.00
45621;BME280;31345;51.522;10.702;2023-02-27T06:01:27;100166.53;;;-3.13;100.00
45621;BME280;31345;51.522;10.702;2023-02-27T06:03:56;100175.22;;;-2.94;100.00
45621;BME280;31345;51.522;10.702;2023-02-27T06:06:23;100170.84;;;-3.09;100.00
45621;BME280;31345;51.522;10.702;2023-02-27T06:08:51;100174.19;;;-3.17;100.00
45621;BME280;31345;51.522;10.702;2023-02-27T06:11:19;100181.88;;;-3.15;100.00
45621;BME280;31345;51.522;10.702;2023-02-27T06:13:51;100184.31;;;-3.29;100.00
45621;BME280;31345;51.522;10.702;2023-02-27T06:16:24;100190.28;;;-3.32;100.00
45621;BME280;31345;51.522;10.702;2023-02-27T06:18:51;100198.78;;;-3.33;100.00
45621;BME280;31345;51.522;10.702;2023-02-27T06:21:27;100197.09;;;-3.31;100.00
45621;BME280;31345;51.522;10.702;2023-02-27T06:23:54;100197.88;;;-3.41;100.00
45621;BME280;31345;51.522;10.702;2023-02-27T06:26:27;100201.13;;;-3.58;100.00
45621;BME280;31345;51.522;10.702;2023-02-27T06:28:59;100205.94;;;-3.86;100.00
45621;BME280;31345;51.522;10.702;2023-02-27T06:31:32;100202.47;;;-3.91;100.00
45621;BME280;31345;51.522;10.702;2023-02-27T06:33:59;100201.66;;;-3.88;100.00
45621;BME280;31345;51.522;10.702;2023-02-27T06:36:28;100205.88;;;-3.90;100.00
45621;BME280;31345;51.522;10.702;2023-02-27T06:39:01;100203.22;;;-4.01;100.00
45621;BME280;31345;51.522;10.702;2023-02-27T06:41:34;100209.84;;;-4.16;100.00
45621;BME280;31345;51.522;10.702;2023-02-27T06:44:07;100213.19;;;-4.20;100.00
45621;BME280;31345;51.522;10.702;2023-02-27T06:46:40;100205.63;;;-4.12;100.00
45621;BME280;31345;51.522;10.702;2023-02-27T06:49:07;100209.19;;;-3.98;100.00
45621;BME280;31345;51.522;10.702;2023-02-27T06:51:36;100203.25;;;-3.97;100.00
45621;BME280;31345;51.522;10.702;2023-02-27T06:54:09;100203.34;;;-3.89;100.00
45621;BME280;31345;51.522;10.702;2023-02-27T06:56:37;100213.69;;;-3.76;100.00
45621;BME280;31345;51.522;10.702;2023-02-27T06:59:04;100211.88;;;-3.85;100.00
45621;BME280;31345;51.522;10.702;2023-02-27T07:01:37;100213.75;;;-3.72;100.00
45621;BME280;31345;51.522;10.702;2023-02-27T07:04:04;100216.38;;;-3.64;100.00
45621;BME280;31345;51.522;10.702;2023-02-27T07:06:32;100218.16;;;-3.57;100.00
45621;BME280;31345;51.522;10.702;2023-02-27T07:09:06;100217.56;;;-3.31;100.00
45621;BME280;31345;51.522;10.702;2023-02-27T07:11:38;100216.69;;;-3.34;100.00
45621;BME280;31345;51.522;10.702;2023-02-27T07:14:11;100220.25;;;-3.15;100.00
45621;BME280;31345;51.522;10.702;2023-02-27T07:16:40;100223.59;;;-3.25;100.00
45621;BME280;31345;51.522;10.702;2023-02-27T07:19:13;100229.56;;;-3.26;100.00
45621;BME280;31345;51.522;10.702;2023-02-27T07:21:45;100223.84;;;-2.93;100.00
45621;BME280;31345;51.522;10.702;2023-02-27T07:24:19;100229.78;;;-2.95;100.00
45621;BME280;31345;51.522;10.702;2023-02-27T07:26:52;100239.16;;;-2.99;100.00
45621;BME280;31345;51.522;10.702;2023-02-27T07:29:25;100243.47;;;-2.93;100.00
45621;BME280;31345;51.522;10.702;2023-02-27T07:31:53;100240.19;;;-2.75;100.00
45621;BME280;31345;51.522;10.702;2023-02-27T07:34:20;100248.00;;;-2.55;100.00
45621;BME280;31345;51.522;10.702;2023-02-27T07:36:53;100248.84;;;-2.56;100.00
45621;BME280;31345;51.522;10.702;2023-02-27T07:39:22;100259.97;;;-2.55;100.00
45621;BME280;31345;51.522;10.702;2023-02-27T07:41:54;100254.03;;;-2.51;100.00
45621;BME280;31345;51.522;10.702;2023-02-27T07:44:22;100260.91;;;-2.39;100.00
45621;BME280;31345;51.522;10.702;2023-02-27T07:46:50;100261.72;;;-2.45;100.00
45621;BME280;31345;51.522;10.702;2023-02-27T07:49:22;100271.06;;;-2.52;100.00
45621;BME280;31345;51.522;10.702;2023-02-27T07:51:55;100270.31;;;-2.35;100.00
45621;BME280;31345;51.522;10.702;2023-02-27T07:54:24;100276.31;;;-2.36;100.00
45621;BME280;31345;51.522;10.702;2023-02-27T07:56:57;100269.59;;;-2.20;100.00
45621;BME280;31345;51.522;10.702;2023-02-27T07:59:30;100266.25;;;-2.03;100.00
45621;BME280;31345;51.522;10.702;2023-02-27T08:01:58;100274.03;;;-1.77;100.00
45621;BME280;31345;51.522;10.702;2023-02-27T08:04:25;100272.34;;;-1.70;100.00
45621;BME280;31345;51.522;10.702;2023-02-27T08:06:58;100282.69;;;-1.51;100.00
45621;BME280;31345;51.522;10.702;2023-02-27T08:09:32;100285.31;;;-1.36;100.00
45621;BME280;31345;51.522;10.702;2023-02-27T08:12:04;100273.34;;;-1.19;100.00
45621;BME280;31345;51.522;10.702;2023-02-27T08:14:37;100271.63;;;-1.11;100.00
45621;BME280;31345;51.522;10.702;2023-02-27T08:17:05;100276.81;;;-0.91;100.00
45621;BME280;31345;51.522;10.702;2023-02-27T08:19:37;100275.09;;;-0.78;100.00
45621;BME280;31345;51.522;10.702;2023-02-27T08:22:11;100277.66;;;-0.78;100.00
45621;BME280;31345;51.522;10.702;2023-02-27T08:24:40;100276.78;;;-0.52;100.00
45621;BME280;31345;51.522;10.702;2023-02-27T08:27:13;100273.38;;;-0.60;100.00
45621;BME280;31345;51.522;10.702;2023-02-27T08:29:46;100279.31;;;-0.16;100.00
45621;BME280;31345;51.522;10.702;2023-02-27T08:32:18;100268.13;;;-0.01;100.00
45621;BME280;31345;51.522;10.702;2023-02-27T08:34:51;100265.59;;;-0.24;100.00
45621;BME280;31345;51.522;10.702;2023-02-27T08:37:23;100269.91;;;-0.22;100.00
45621;BME280;31345;51.522;10.702;2023-02-27T08:39:57;100266.47;;;-0.19;100.00
45621;BME280;31345;51.522;10.702;2023-02-27T08:42:30;100272.44;;;-0.19;100.00
45621;BME280;31345;51.522;10.702;2023-02-27T08:45:03;100271.53;;;0.01;99.13
45621;BME280;31345;51.522;10.702;2023-02-27T08:47:36;100263.75;;;0.18;98.40
45621;BME280;31345;51.522;10.702;2023-02-27T08:50:09;100260.31;;;0.27;97.26
45621;BME280;31345;51.522;10.702;2023-02-27T08:52:38;100269.56;;;0.63;98.25
45621;BME280;31345;51.522;10.702;2023-02-27T08:55:12;100261.69;;;0.81;95.51
45621;BME280;31345;51.522;10.702;2023-02-27T08:57:44;100264.25;;;0.84;94.90
45621;BME280;31345;51.522;10.702;2023-02-27T09:00:18;100262.56;;;0.82;95.73
45621;BME280;31345;51.522;10.702;2023-02-27T09:02:50;100266.03;;;0.76;94.19
45621;BME280;31345;51.522;10.702;2023-02-27T09:05:18;100270.91;;;1.14;94.32
45621;BME280;31345;51.522;10.702;2023-02-27T09:07:51;100269.38;;;0.92;94.28
45621;BME280;31345;51.522;10.702;2023-02-27T09:10:25;100259.81;;;1.05;93.98
45621;BME280;31345;51.522;10.702;2023-02-27T09:12:58;100262.13;;;1.38;93.55
45621;BME280;31345;51.522;10.702;2023-02-27T09:15:31;100263.09;;;1.26;92.41
45621;BME280;31345;51.522;10.702;2023-02-27T09:18:05;100256.81;;;1.55;90.82
45621;BME280;31345;51.522;10.702;2023-02-27T09:20:38;100257.66;;;1.57;89.71
45621;BME280;31345;51.522;10.702;2023-02-27T09:23:11;100256.81;;;2.32;88.21
45621;BME280;31345;51.522;10.702;2023-02-27T09:25:45;100253.78;;;2.00;87.20
45621;BME280;31345;51.522;10.702;2023-02-27T09:28:13;100258.53;;;1.55;90.97
45621;BME280;31345;51.522;10.702;2023-02-27T09:30:41;100270.59;;;1.54;90.57
45621;BME280;31345;51.522;10.702;2023-02-27T09:33:08;100268.91;;;1.50;91.02
45621;BME280;31345;51.522;10.702;2023-02-27T09:35:41;100275.53;;;1.74;90.61
45621;BME280;31345;51.522;10.702;2023-02-27T09:38:08;100268.66;;;1.75;91.42
45621;BME280;31345;51.522;10.702;2023-02-27T09:40:42;100281.34;;;1.94;92.83
45621;BME280;31345;51.522;10.702;2023-02-27T09:43:19;100277.38;;;1.60;92.85
45621;BME280;31345;51.522;10.702;2023-02-27T09:45:54;100277.56;;;1.43;93.37
45621;BME280;31345;51.522;10.702;2023-02-27T09:48:30;100271.38;;;1.62;92.71
45621;BME280;31345;51.522;10.702;2023-02-27T09:50:59;100274.91;;;1.49;93.31
45621;BME280;31345;51.522;10.702;2023-02-27T09:53:29;100280.13;;;1.44;93.19
45621;BME280;31345;51.522;10.702;2023-02-27T09:56:07;100280.06;;;1.52;92.67
45621;BME280;31345;51.522;10.702;2023-02-27T09:58:46;100282.78;;;1.35;93.62
45621;BME280;31345;51.522;10.702;2023-02-27T10:01:19;100281.22;;;1.15;93.59
45621;BME280;31345;51.522;10.702;2023-02-27T10:04:02;100276.91;;;1.20;93.59
45621;BME280;31345;51.522;10.702;2023-02-27T10:06:41;100279.53;;;1.09;93.66
45621;BME280;31345;51.522;10.702;2023-02-27T10:09:21;100286.31;;;1.23;95.33
45621;BME280;31345;51.522;10.702;2023-02-27T10:12:05;100278.59;;;1.23;93.71
45621;BME280;31345;51.522;10.702;2023-02-27T10:14:46;100282.72;;;1.43;94.49
45621;BME280;31345;51.522;10.702;2023-02-27T10:17:20;100283.59;;;1.40;94.32
45621;BME280;31345;51.522;10.702;2023-02-27T10:19:56;100283.66;;;1.31;93.41
45621;BME280;31345;51.522;10.702;2023-02-27T10:22:27;100282.84;;;1.27;93.52
45621;BME280;31345;51.522;10.702;2023-02-27T10:25:04;100279.41;;;1.27;93.51
45621;BME280;31345;51.522;10.702;2023-02-27T10:27:38;100282.75;;;1.36;94.63
45621;BME280;31345;51.522;10.702;2023-02-27T10:30:19;100281.06;;;1.32;91.76
45621;BME280;31345;51.522;10.702;2023-02-27T10:32:49;100286.25;;;1.29;90.60
45621;BME280;31345;51.522;10.702;2023-02-27T10:35:27;100287.13;;;1.27;92.86
45621;BME280;31345;51.522;10.702;2023-02-27T10:38:05;100283.72;;;1.25;92.48
45621;BME280;31345;51.522;10.702;2023-02-27T10:40:43;100280.00;;;1.57;91.57
45621;BME280;31345;51.522;10.702;2023-02-27T10:43:16;100279.03;;;1.69;91.38
45621;BME280;31345;51.522;10.702;2023-02-27T10:45:51;100281.63;;;1.67;90.93
45621;BME280;31345;51.522;10.702;2023-02-27T10:48:19;100277.28;;;1.72;89.35
45621;BME280;31345;51.522;10.702;2023-02-27T10:50:49;100278.28;;;1.56;90.53
45621;BME280;31345;51.522;10.702;2023-02-27T10:53:23;100275.69;;;1.57;88.91
45621;BME280;31345;51.522;10.702;2023-02-27T10:56:00;100273.84;;;1.72;90.64
45621;BME280;31345;51.522;10.702;2023-02-27T10:58:30;100271.34;;;1.64;91.66
45621;BME280;31345;51.522;10.702;2023-02-27T11:01:06;100271.25;;;1.73;91.70
45621;BME280;31345;51.522;10.702;2023-02-27T11:03:41;100266.13;;;1.70;88.42
45621;BME280;31345;51.522;10.702;2023-02-27T11:06:20;100266.97;;;1.72;88.87
45621;BME280;31345;51.522;10.702;2023-02-27T11:09:09;100255.72;;;2.50;85.04
45621;BME280;31345;51.522;10.702;2023-02-27T11:11:42;100248.88;;;3.06;86.99
45621;BME280;31345;51.522;10.702;2023-02-27T11:14:26;100231.66;;;3.55;82.23
45621;BME280;31345;51.522;10.702;2023-02-27T11:16:57;100238.22;;;3.74;80.81
45621;BME280;31345;51.522;10.702;2023-02-27T11:19:33;100240.47;;;3.92;80.67
45621;BME280;31345;51.522;10.702;2023-02-27T11:22:14;100231.78;;;3.95;79.62
45621;BME280;31345;51.522;10.702;2023-02-27T11:24:47;100227.75;;;4.24;79.09
45621;BME280;31345;51.522;10.702;2023-02-27T11:27:20;100229.97;;;4.41;80.36
45621;BME280;31345;51.522;10.702;2023-02-27T11:29:57;100231.28;;;4.59;77.58
45621;BME280;31345;51.522;10.702;2023-02-27T11:32:39;100223.88;;;4.44;72.38
45621;BME280;31345;51.522;10.702;2023-02-27T11:35:23;100224.47;;;4.16;77.36
45621;BME280;31345;51.522;10.702;2023-02-27T11:37:58;100224.03;;;4.38;77.55
45621;BME280;31345;51.522;10.702;2023-02-27T11:40:36;100220.22;;;4.12;77.11
45621;BME280;31345;51.522;10.702;2023-02-27T11:43:14;100216.84;;;4.10;74.84
45621;BME280;31345;51.522;10.702;2023-02-27T11:45:53;100215.09;;;3.66;72.94
45621;BME280;31345;51.522;10.702;2023-02-27T11:48:30;100225.38;;;3.71;78.44
45621;BME280;31345;51.522;10.702;2023-02-27T11:51:10;100222.25;;;3.53;76.91
45621;BME280;31345;51.522;10.702;2023-02-27T11:54:02;100218.69;;;3.59;79.98
45621;BME280;31345;51.522;10.702;2023-02-27T11:56:38;100213.97;;;3.34;74.83
45621;BME280;31345;51.522;10.702;2023-02-27T11:59:21;100220.09;;;3.28;78.95
45621;BME280;31345;51.522;10.702;2023-02-27T12:02:00;100215.44;;;2.97;78.72
45621;BME280;31345;51.522;10.702;2023-02-27T12:04:40;100221.00;;;2.72;79.96
45621;BME280;31345;51.522;10.702;2023-02-27T12:07:20;100215.97;;;2.62;78.83
45621;BME280;31345;51.522;10.702;2023-02-27T12:09:59;100217.13;;;2.98;77.72
45621;BME280;31345;51.522;10.702;2023-02-27T12:12:40;100210.84;;;3.63;76.31
45621;BME280;31345;51.522;10.702;2023-02-27T12:15:21;100208.19;;;3.19;77.71
45621;BME280;31345;51.522;10.702;2023-02-27T12:18:02;100200.56;;;3.13;75.63
45621;BME280;31345;51.522;10.702;2023-02-27T12:20:44;100206.88;;;2.95;74.82
45621;BME280;31345;51.522;10.702;2023-02-27T12:23:20;100211.41;;;2.78;74.67
45621;BME280;31345;51.522;10.702;2023-02-27T12:25:51;100207.72;;;2.94;76.27
45621;BME280;31345;51.522;10.702;2023-02-27T12:28:35;100213.56;;;3.07;78.66
45621;BME280;31345;51.522;10.702;2023-02-27T12:31:24;100206.06;;;2.91;77.22
45621;BME280;31345;51.522;10.702;2023-02-27T12:34:03;100205.28;;;2.87;75.70
45621;BME280;31345;51.522;10.702;2023-02-27T12:36:41;100200.81;;;2.97;76.24
45621;BME280;31345;51.522;10.702;2023-02-27T12:39:17;100202.34;;;3.08;76.82
45621;BME280;31345;51.522;10.702;2023-02-27T12:42:09;100198.50;;;3.30;75.62
45621;BME280;31345;51.522;10.702;2023-02-27T12:44:57;100202.84;;;3.76;77.52
45621;BME280;31345;51.522;10.702;2023-02-27T12:47:35;100196.94;;;3.69;77.13
45621;BME280;31345;51.522;10.702;2023-02-27T12:50:10;100197.09;;;3.61;74.02
45621;BME280;31345;51.522;10.702;2023-02-27T12:52:58;100192.13;;;3.50;73.54
45621;BME280;31345;51.522;10.702;2023-02-27T12:55:38;100190.81;;;3.26;75.75
45621;BME280;31345;51.522;10.702;2023-02-27T12:58:17;100205.94;;;2.99;78.36
45621;BME280;31345;51.522;10.702;2023-02-27T13:00:53;100213.94;;;2.83;79.03
45621;BME280;31345;51.522;10.702;2023-02-27T13:03:33;100209.75;;;2.76;81.59
45621;BME280;31345;51.522;10.702;2023-02-27T13:06:15;100211.53;;;2.72;81.27
45621;BME280;31345;51.522;10.702;2023-02-27T13:09:07;100206.44;;;2.68;81.86
45621;BME280;31345;51.522;10.702;2023-02-27T13:11:50;100210.44;;;2.87;80.48
45621;BME280;31345;51.522;10.702;2023-02-27T13:14:39;100207.22;;;3.25;77.53
45621;BME280;31345;51.522;10.702;2023-02-27T13:17:16;100206.94;;;3.86;76.88
45621;BME280;31345;51.522;10.702;2023-02-27T13:19:51;100202.22;;;4.08;73.85
45621;BME280;31345;51.522;10.702;2023-02-27T13:22:31;100197.34;;;3.93;72.83
45621;BME280;31345;51.522;10.702;2023-02-27T13:25:13;100206.81;;;3.94;73.84
45621;BME280;31345;51.522;10.702;2023-02-27T13:27:47;100200.31;;;3.73;74.45